| time (UTC) | temp C | wind direction | speed KPH | gust KPH | rain 1hr cm | rain 24hr cm | rain mn cm | humidity % | barometer mb |
| 20260506103556 | 12 | 116 | 1.6 | 3.2 | 0.00 | 0.00 | 0.00 | 89 | 1017.0 |
| 20260506101356 | 12 | 116 | 0.0 | 3.2 | 0.00 | 0.00 | 0.00 | 89 | 1016.9 |
| 20260506100256 | 12 | 116 | 3.2 | 4.8 | 0.00 | 0.00 | 0.00 | 89 | 1016.9 |
| 20260506095157 | 12 | 116 | 1.6 | 4.8 | 0.00 | 0.00 | 0.00 | 88 | 1016.7 |
| 20260506094057 | 12 | 115 | 1.6 | 4.8 | 0.00 | 0.00 | 0.00 | 88 | 1016.8 |
| 20260506092958 | 12 | 115 | 1.6 | 4.8 | 0.00 | 0.00 | 0.00 | 88 | 1016.6 |
| 20260506091857 | 13 | 115 | 1.6 | 3.2 | 0.00 | 0.00 | 0.00 | 87 | 1016.6 |
| 20260506090756 | 13 | 115 | 1.6 | 9.7 | 0.00 | 0.00 | 0.00 | 85 | 1016.6 |
| 20260506080156 | 12 | 128 | 3.2 | 6.4 | 0.00 | 0.00 | 0.00 | 90 | 1016.5 |
| 20260506072857 | 12 | 130 | 4.8 | 6.4 | 0.00 | 0.00 | 0.00 | 91 | 1016.4 |
| 20260506071757 | 12 | 130 | 3.2 | 4.8 | 0.00 | 0.00 | 0.00 | 91 | 1016.3 |
| 20260506070657 | 12 | 130 | 1.6 | 3.2 | 0.00 | 0.00 | 0.00 | 92 | 1016.2 |
| 20260506062257 | 12 | 130 | 3.2 | 4.8 | 0.00 | 0.00 | 0.00 | 92 | 1016.1 |
| 20260506061157 | 12 | 130 | 3.2 | 4.8 | 0.00 | 0.00 | 0.00 | 91 | 1016.0 |
| 20260506050557 | 11 | 128 | 3.2 | 6.4 | 0.00 | 0.00 | 0.00 | 93 | 1015.8 |
| 20260506043256 | 10 | 120 | 4.8 | 6.4 | 0.00 | 0.00 | 0.00 | 92 | 1015.5 |
| 20260506042156 | 10 | 112 | 4.8 | 6.4 | 0.00 | 0.00 | 0.00 | 92 | 1015.3 |
| 20260506034856 | 11 | 59 | 3.2 | 3.2 | 0.00 | 0.00 | 0.00 | 90 | 1015.0 |
| 20260506033756 | 11 | 59 | 3.2 | 3.2 | 0.00 | 0.00 | 0.00 | 89 | 1014.8 |
| 20260506032657 | 12 | 59 | 3.2 | 4.8 | 0.00 | 0.00 | 0.00 | 87 | 1014.6 |
| 20260506031556 | 12 | 59 | 3.2 | 3.2 | 0.00 | 0.00 | 0.00 | 86 | 1014.5 |
| 20260506030458 | 13 | 59 | 1.6 | 3.2 | 0.00 | 0.00 | 0.00 | 85 | 1014.5 |
| 20260506025356 | 13 | 58 | 3.2 | 4.8 | 0.00 | 0.00 | 0.00 | 83 | 1014.4 |
| 20260506024257 | 13 | 58 | 4.8 | 8.0 | 0.00 | 0.00 | 0.00 | 82 | 1014.4 |
| 20260506023156 | 14 | 71 | 1.6 | 6.4 | 0.00 | 0.00 | 0.00 | 81 | 1014.3 |
| 20260506022056 | 14 | 117 | 3.2 | 6.4 | 0.00 | 0.00 | 0.00 | 82 | 1014.4 |
| 20260506020958 | 14 | 22 | 1.6 | 6.4 | 0.00 | 0.00 | 0.00 | 84 | 1014.3 |
| 20260506015856 | 14 | 24 | 1.6 | 4.8 | 0.00 | 0.00 | 0.00 | 82 | 1014.4 |
| 20260506013657 | 14 | 340 | 3.2 | 4.8 | 0.00 | 0.00 | 0.00 | 83 | 1014.3 |
| 20260506012556 | 14 | 340 | 1.6 | 4.8 | 0.00 | 0.00 | 0.00 | 83 | 1014.2 |
| 20260506011458 | 13 | 340 | 3.2 | 6.4 | 0.00 | 0.00 | 0.00 | 84 | 1014.3 |
| 20260506010356 | 13 | 349 | 3.2 | 6.4 | 0.00 | 0.00 | 0.00 | 85 | 1014.3 |
| 20260506005258 | 13 | 348 | 3.2 | 6.4 | 0.00 | 0.00 | 0.00 | 85 | 1014.3 |
| 20260506004156 | 13 | 355 | 3.2 | 6.4 | 0.00 | 0.00 | 0.00 | 84 | 1014.3 |
| 20260506003056 | 14 | 10 | 4.8 | 9.7 | 0.00 | 0.00 | 0.00 | 84 | 1014.4 |
| 20260506001958 | 14 | 349 | 3.2 | 6.4 | 0.00 | 0.00 | 0.00 | 84 | 1014.3 |
| 20260506000856 | 14 | 315 | 3.2 | 4.8 | 0.00 | 0.00 | 0.00 | 85 | 1014.4 |
| 20260505235756 | 14 | 315 | 4.8 | 9.7 | 0.00 | 0.00 | 0.00 | 83 | 1014.4 |
| 20260505234656 | 14 | 326 | 4.8 | 9.7 | 0.00 | 0.00 | 0.00 | 84 | 1014.6 |
| 20260505233556 | 14 | 5 | 1.6 | 4.8 | 0.00 | 0.00 | 0.00 | 83 | 1014.6 |
| 20260505231357 | 13 | 355 | 0.0 | 3.2 | 0.00 | 0.00 | 0.00 | 83 | 1014.6 |
| 20260505225156 | 13 | 306 | 3.2 | 8.0 | 0.00 | 0.00 | 0.00 | 85 | 1014.8 |
| 20260505224057 | 13 | 314 | 4.8 | 11.3 | 0.00 | 0.00 | 0.00 | 85 | 1014.9 |
| 20260505222959 | 13 | 284 | 3.2 | 9.7 | 0.00 | 0.00 | 0.00 | 85 | 1014.9 |
| 20260505220756 | 13 | 288 | 4.8 | 8.0 | 0.00 | 0.00 | 0.00 | 85 | 1015.0 |
| 20260505215656 | 13 | 294 | 3.2 | 8.0 | 0.00 | 0.00 | 0.00 | 86 | 1015.1 |
| 20260505214556 | 13 | 322 | 3.2 | 6.4 | 0.00 | 0.00 | 0.00 | 87 | 1015.1 |
| 20260505213458 | 13 | 318 | 3.2 | 6.4 | 0.00 | 0.00 | 0.00 | 87 | 1015.1 |
| 20260505212356 | 13 | 307 | 4.8 | 9.7 | 0.00 | 0.00 | 0.00 | 87 | 1015.3 |
| 20260505211256 | 13 | 306 | 4.8 | 9.7 | 0.00 | 0.00 | 0.00 | 87 | 1015.2 |
| 20260505210156 | 13 | 276 | 4.8 | 11.3 | 0.00 | 0.00 | 0.00 | 87 | 1015.2 |
| 20260505205056 | 13 | 309 | 6.4 | 11.3 | 0.00 | 0.00 | 0.00 | 87 | 1015.2 |
| 20260505203958 | 13 | 309 | 3.2 | 8.0 | 0.00 | 0.00 | 0.00 | 87 | 1015.4 |
| 20260505202856 | 13 | 310 | 3.2 | 8.0 | 0.00 | 0.00 | 0.00 | 88 | 1015.4 |
| 20260505201756 | 12 | 288 | 3.2 | 8.0 | 0.00 | 0.00 | 0.00 | 90 | 1015.4 |
| 20260505200656 | 12 | 279 | 3.2 | 6.4 | 0.00 | 0.00 | 0.00 | 93 | 1015.4 |
| 20260505194458 | 11 | 296 | 4.8 | 8.0 | 0.00 | 0.00 | 0.00 | 94 | 1015.6 |
| 20260505193356 | 11 | 296 | 4.8 | 9.7 | 0.00 | 0.00 | 0.00 | 94 | 1015.5 |
| 20260505191156 | 11 | 344 | 3.2 | 8.0 | 0.00 | 0.00 | 0.00 | 94 | 1015.5 |
| 20260505190056 | 11 | 284 | 0.0 | 6.4 | 0.00 | 0.00 | 0.00 | 96 | 1015.5 |
| 20260505185000 | 11 | 288 | 1.6 | 4.8 | 0.00 | 0.00 | 0.00 | 97 | 1015.5 |
| 20260505183856 | 11 | 297 | 3.2 | 6.4 | 0.00 | 0.00 | 0.00 | 97 | 1015.5 |
| 20260505182756 | 10 | 296 | 4.8 | 8.0 | 0.00 | 0.00 | 0.00 | 96 | 1015.6 |
| 20260505181656 | 10 | 248 | 6.4 | 11.3 | 0.00 | 0.00 | 0.00 | 96 | 1015.5 |
| 20260505180556 | 11 | 294 | 3.2 | 6.4 | 0.00 | 0.00 | 0.00 | 97 | 1015.4 |
| 20260505175459 | 10 | 305 | 3.2 | 8.0 | 0.00 | 0.00 | 0.00 | 97 | 1015.4 |
| 20260505174356 | 10 | 325 | 4.8 | 8.0 | 0.00 | 0.00 | 0.00 | 97 | 1015.4 |
| 20260505173256 | 10 | 311 | 4.8 | 11.3 | 0.00 | 0.00 | 0.00 | 97 | 1015.3 |
| 20260505172156 | 10 | 283 | 4.8 | 8.0 | 0.00 | 0.00 | 0.00 | 97 | 1015.3 |
| 20260505171056 | 10 | 291 | 3.2 | 6.4 | 0.00 | 0.00 | 0.00 | 97 | 1015.2 |
| 20260505164856 | 10 | 278 | 3.2 | 8.0 | 0.00 | 0.00 | 0.00 | 97 | 1015.0 |
| 20260505163757 | 10 | 300 | 3.2 | 6.4 | 0.00 | 0.00 | 0.00 | 97 | 1014.9 |
| 20260505162656 | 10 | 280 | 3.2 | 6.4 | 0.00 | 0.00 | 0.00 | 97 | 1015.0 |
| 20260505161556 | 10 | 273 | 3.2 | 6.4 | 0.00 | 0.00 | 0.00 | 97 | 1014.8 |
| 20260505160459 | 10 | 275 | 4.8 | 9.7 | 0.00 | 0.00 | 0.00 | 97 | 1014.9 |
| 20260505153156 | 10 | 254 | 3.2 | 8.0 | 0.00 | 0.00 | 0.00 | 96 | 1014.8 |
| 20260505152056 | 10 | 287 | 4.8 | 8.0 | 0.00 | 0.00 | 0.00 | 96 | 1014.7 |
| 20260505150959 | 10 | 259 | 3.2 | 8.0 | 0.00 | 0.00 | 0.00 | 96 | 1014.6 |
| 20260505124656 | 10 | 279 | 3.2 | 6.4 | 0.00 | 0.00 | 0.00 | 92 | 1013.7 |
| 20260505123556 | 10 | 278 | 3.2 | 6.4 | 0.00 | 0.00 | 0.00 | 92 | 1013.7 |
| 20260505121356 | 10 | 271 | 3.2 | 6.4 | 0.00 | 0.00 | 0.00 | 92 | 1013.6 |
| 20260505120256 | 10 | 269 | 3.2 | 8.0 | 0.00 | 0.00 | 0.00 | 91 | 1013.5 |
| 20260505115156 | 10 | 261 | 1.6 | 6.4 | 0.00 | 0.00 | 0.00 | 91 | 1013.5 |
| 20260505114056 | 10 | 263 | 3.2 | 8.0 | 0.00 | 0.00 | 0.00 | 91 | 1013.4 |
| 20260505112958 | 10 | 233 | 4.8 | 8.0 | 0.00 | 0.00 | 0.00 | 91 | 1013.4 |
| 20260505110756 | 10 | 257 | 3.2 | 8.0 | 0.00 | 0.00 | 0.00 | 91 | 1013.3 |